Etusivu
METAR-TAF:

METAR-TAF

Lentoasemat :

Kasuminome, Japani

Leveyspiiri: 38-14N, Pituuspiiri: 140-55E, korkeus merenpinnasta: 7 m

Tämänhetkinen sää

Tämä raportti tehtiin 5 tuntia ja 39 minuuttia sitten, kello 07.30 UTC
Tuuli 13 kn etelästä/kaakosta
Lämpötila 15°C
Kosteus 67%
Ilmanpaine 1017 hPa
Näkyvyys 10 km tai enemmän
Muutamia pilviä 2500 ft:n korkeudessa
Hajonneita pilviä 5000 ft:n korkeudessa

METAR: RJSU 130730Z 16013KT 9999 FEW025 BKN050 15/09 Q1017 RMK 1CU025 5CU050 A3004

Aika: 22:09 (13:09 UTC)


TAF: puuttuu

Säähavainnot ja -ennusteet yli 4000 lentoasemalta (METAR- ja TAF-raportit).

Käytössä olevat sääasemat on merkitty karttaan keltaisilla ja punaisilla pisteillä.

Aseta hiiri pisteen päälle nähdäksesi sääaseman nimen.

Klikkaa sitten nähdäksesi säähavainnot ja -ennusteet.

Kartan vaihtaminen: klikkaa mustalla rastilla varustettuja vihreitä pisteitä, niin voit zoomata sisään; viivalla varustettua vihreää pistettä, niin voit zoomata ulos tai vihreitä nuolia, niin pääset viereisille kartoille.


METAR-TAF: